Mittie, Louisiana
Current Conditions -  °F | °C
As of 9:35 AM on Saturday 20 Dec 2014 (Local Time) from KACP Reporting Station
Overcast Overcast  
Wind Chill: 45°   Ceiling: 600
Heat Index: 49°   Visibility: 10mi
Dew Point: 46°   Wind: 9mph
Humidity: 89%   Direction: 360°N
Pressure: 30.22"   Gusts: NA
Location:  30.71°N, 92.91°W
Report Text: KACP 201535Z AUTO 36008KT 10SM OVC006 09/08 A3022 RMK AO2 T00940077
Loading
Personal Weather Stations






























Interactive Weather Map New forecast layout! Learn more

10-Day Weather Forecast

Advertisements
Track Severe Weather on mobile